sensor_id;sensor_type;location;lat;lon;timestamp;temperature;humidity
15543;DHT22;7873;52.230;12.856;2023-02-19T00:00:08;24.30;42.70
15543;DHT22;7873;52.230;12.856;2023-02-19T00:02:35;24.20;42.70
15543;DHT22;7873;52.230;12.856;2023-02-19T00:05:02;24.20;42.70
15543;DHT22;7873;52.230;12.856;2023-02-19T00:07:30;24.10;43.00
15543;DHT22;7873;52.230;12.856;2023-02-19T00:09:56;24.10;42.80
15543;DHT22;7873;52.230;12.856;2023-02-19T00:12:23;24.10;42.90
15543;DHT22;7873;52.230;12.856;2023-02-19T00:14:51;24.10;43.00
15543;DHT22;7873;52.230;12.856;2023-02-19T00:17:19;24.10;43.00
15543;DHT22;7873;52.230;12.856;2023-02-19T00:19:46;24.00;43.00
15543;DHT22;7873;52.230;12.856;2023-02-19T00:22:12;24.00;43.00
15543;DHT22;7873;52.230;12.856;2023-02-19T00:24:39;24.00;43.00
15543;DHT22;7873;52.230;12.856;2023-02-19T00:27:05;24.00;43.00
15543;DHT22;7873;52.230;12.856;2023-02-19T00:29:32;24.00;43.20
15543;DHT22;7873;52.230;12.856;2023-02-19T00:32:00;23.90;43.10
15543;DHT22;7873;52.230;12.856;2023-02-19T00:34:27;23.90;43.20
15543;DHT22;7873;52.230;12.856;2023-02-19T00:36:53;23.90;43.30
15543;DHT22;7873;52.230;12.856;2023-02-19T00:39:20;23.90;43.10
15543;DHT22;7873;52.230;12.856;2023-02-19T00:41:47;23.90;43.30
15543;DHT22;7873;52.230;12.856;2023-02-19T00:44:13;23.80;43.40
15543;DHT22;7873;52.230;12.856;2023-02-19T00:46:42;23.80;43.40
15543;DHT22;7873;52.230;12.856;2023-02-19T00:49:13;23.80;43.40
15543;DHT22;7873;52.230;12.856;2023-02-19T00:51:42;23.80;43.40
15543;DHT22;7873;52.230;12.856;2023-02-19T00:54:09;23.70;43.40
15543;DHT22;7873;52.230;12.856;2023-02-19T00:56:36;23.80;43.40
15543;DHT22;7873;52.230;12.856;2023-02-19T00:59:02;23.70;43.40
15543;DHT22;7873;52.230;12.856;2023-02-19T01:01:29;23.70;43.30
15543;DHT22;7873;52.230;12.856;2023-02-19T01:03:56;23.70;43.50
15543;DHT22;7873;52.230;12.856;2023-02-19T01:06:24;23.60;43.50
15543;DHT22;7873;52.230;12.856;2023-02-19T01:08:51;23.60;43.50
15543;DHT22;7873;52.230;12.856;2023-02-19T01:11:17;23.60;43.50
15543;DHT22;7873;52.230;12.856;2023-02-19T01:13:44;23.60;43.50
15543;DHT22;7873;52.230;12.856;2023-02-19T01:16:11;23.60;43.70
15543;DHT22;7873;52.230;12.856;2023-02-19T01:18:39;23.60;43.60
15543;DHT22;7873;52.230;12.856;2023-02-19T01:21:06;23.50;43.50
15543;DHT22;7873;52.230;12.856;2023-02-19T01:23:36;23.50;43.60
15543;DHT22;7873;52.230;12.856;2023-02-19T01:26:03;23.50;43.70
15543;DHT22;7873;52.230;12.856;2023-02-19T01:28:31;23.50;43.80
15543;DHT22;7873;52.230;12.856;2023-02-19T01:30:59;23.50;43.70
15543;DHT22;7873;52.230;12.856;2023-02-19T01:33:27;23.50;43.70
15543;DHT22;7873;52.230;12.856;2023-02-19T01:35:53;23.50;43.60
15543;DHT22;7873;52.230;12.856;2023-02-19T01:38:20;23.50;43.80
15543;DHT22;7873;52.230;12.856;2023-02-19T01:40:53;23.40;43.60
15543;DHT22;7873;52.230;12.856;2023-02-19T01:43:21;23.40;43.60
15543;DHT22;7873;52.230;12.856;2023-02-19T01:45:48;23.40;43.70
15543;DHT22;7873;52.230;12.856;2023-02-19T01:48:16;23.40;43.70
15543;DHT22;7873;52.230;12.856;2023-02-19T01:50:48;23.40;43.70
15543;DHT22;7873;52.230;12.856;2023-02-19T01:53:18;23.40;43.80
15543;DHT22;7873;52.230;12.856;2023-02-19T01:55:47;23.40;43.90
15543;DHT22;7873;52.230;12.856;2023-02-19T01:58:19;23.30;43.80
15543;DHT22;7873;52.230;12.856;2023-02-19T02:00:46;23.30;43.80
15543;DHT22;7873;52.230;12.856;2023-02-19T02:03:12;23.30;43.90
15543;DHT22;7873;52.230;12.856;2023-02-19T02:05:43;23.30;43.90
15543;DHT22;7873;52.230;12.856;2023-02-19T02:08:14;23.30;43.90
15543;DHT22;7873;52.230;12.856;2023-02-19T02:11:00;23.30;43.90
15543;DHT22;7873;52.230;12.856;2023-02-19T02:13:29;23.20;43.80
15543;DHT22;7873;52.230;12.856;2023-02-19T02:15:59;23.20;43.80
15543;DHT22;7873;52.230;12.856;2023-02-19T02:18:38;23.20;43.90
15543;DHT22;7873;52.230;12.856;2023-02-19T02:21:19;23.20;44.00
15543;DHT22;7873;52.230;12.856;2023-02-19T02:24:05;23.20;43.90
15543;DHT22;7873;52.230;12.856;2023-02-19T02:26:50;23.20;44.00
15543;DHT22;7873;52.230;12.856;2023-02-19T02:29:45;23.10;44.00
15543;DHT22;7873;52.230;12.856;2023-02-19T02:32:25;23.10;44.00
15543;DHT22;7873;52.230;12.856;2023-02-19T02:34:57;23.10;44.00
15543;DHT22;7873;52.230;12.856;2023-02-19T02:37:29;23.10;44.00
15543;DHT22;7873;52.230;12.856;2023-02-19T02:40:00;23.10;44.10
15543;DHT22;7873;52.230;12.856;2023-02-19T02:42:28;23.00;44.00
15543;DHT22;7873;52.230;12.856;2023-02-19T02:44:56;23.00;44.10
15543;DHT22;7873;52.230;12.856;2023-02-19T02:47:42;23.00;44.10
15543;DHT22;7873;52.230;12.856;2023-02-19T02:50:14;23.00;44.10
15543;DHT22;7873;52.230;12.856;2023-02-19T02:52:45;23.00;44.10
15543;DHT22;7873;52.230;12.856;2023-02-19T02:55:35;23.00;44.10
15543;DHT22;7873;52.230;12.856;2023-02-19T02:58:05;23.00;44.10
15543;DHT22;7873;52.230;12.856;2023-02-19T03:00:34;23.00;44.20
15543;DHT22;7873;52.230;12.856;2023-02-19T03:03:16;22.90;44.20
15543;DHT22;7873;52.230;12.856;2023-02-19T03:05:46;22.90;44.10
15543;DHT22;7873;52.230;12.856;2023-02-19T03:08:21;22.90;44.20
15543;DHT22;7873;52.230;12.856;2023-02-19T03:10:51;22.80;44.20
15543;DHT22;7873;52.230;12.856;2023-02-19T03:13:22;22.80;44.30
15543;DHT22;7873;52.230;12.856;2023-02-19T03:16:13;22.80;44.30
15543;DHT22;7873;52.230;12.856;2023-02-19T03:19:02;22.80;44.30
15543;DHT22;7873;52.230;12.856;2023-02-19T03:21:46;22.70;44.30
15543;DHT22;7873;52.230;12.856;2023-02-19T03:24:17;22.70;44.30
15543;DHT22;7873;52.230;12.856;2023-02-19T03:27:04;22.70;44.30
15543;DHT22;7873;52.230;12.856;2023-02-19T03:29:34;22.70;44.50
15543;DHT22;7873;52.230;12.856;2023-02-19T03:32:05;22.70;44.50
15543;DHT22;7873;52.230;12.856;2023-02-19T03:34:36;22.70;44.50
15543;DHT22;7873;52.230;12.856;2023-02-19T03:37:08;22.70;44.50
15543;DHT22;7873;52.230;12.856;2023-02-19T03:39:37;22.70;44.40
15543;DHT22;7873;52.230;12.856;2023-02-19T03:42:15;22.60;44.40
15543;DHT22;7873;52.230;12.856;2023-02-19T03:44:49;22.60;44.50
15543;DHT22;7873;52.230;12.856;2023-02-19T03:47:27;22.60;44.40
15543;DHT22;7873;52.230;12.856;2023-02-19T03:49:58;22.60;44.40
15543;DHT22;7873;52.230;12.856;2023-02-19T03:52:35;22.60;44.50
15543;DHT22;7873;52.230;12.856;2023-02-19T03:55:07;22.60;44.40
15543;DHT22;7873;52.230;12.856;2023-02-19T03:57:38;22.60;44.50
15543;DHT22;7873;52.230;12.856;2023-02-19T04:00:15;22.50;44.50
15543;DHT22;7873;52.230;12.856;2023-02-19T04:02:44;22.60;44.60
15543;DHT22;7873;52.230;12.856;2023-02-19T04:05:15;22.50;44.40
15543;DHT22;7873;52.230;12.856;2023-02-19T04:07:46;22.60;44.40
15543;DHT22;7873;52.230;12.856;2023-02-19T04:10:16;22.60;44.50
15543;DHT22;7873;52.230;12.856;2023-02-19T04:12:47;22.50;44.50
15543;DHT22;7873;52.230;12.856;2023-02-19T04:15:17;22.50;44.50
15543;DHT22;7873;52.230;12.856;2023-02-19T04:17:49;22.50;44.50
15543;DHT22;7873;52.230;12.856;2023-02-19T04:20:18;22.50;44.50
15543;DHT22;7873;52.230;12.856;2023-02-19T04:22:47;22.50;44.40
15543;DHT22;7873;52.230;12.856;2023-02-19T04:25:14;22.50;44.50
15543;DHT22;7873;52.230;12.856;2023-02-19T04:27:40;22.40;44.50
15543;DHT22;7873;52.230;12.856;2023-02-19T04:30:11;22.40;44.40
15543;DHT22;7873;52.230;12.856;2023-02-19T04:32:39;22.40;44.60
15543;DHT22;7873;52.230;12.856;2023-02-19T04:35:07;22.40;44.50
15543;DHT22;7873;52.230;12.856;2023-02-19T04:37:34;22.40;44.50
15543;DHT22;7873;52.230;12.856;2023-02-19T04:40:00;22.40;44.50
15543;DHT22;7873;52.230;12.856;2023-02-19T04:42:27;22.40;44.50
15543;DHT22;7873;52.230;12.856;2023-02-19T04:44:54;22.40;44.50
15543;DHT22;7873;52.230;12.856;2023-02-19T04:47:20;22.40;44.50
15543;DHT22;7873;52.230;12.856;2023-02-19T04:49:47;22.40;44.40
15543;DHT22;7873;52.230;12.856;2023-02-19T04:52:15;22.30;44.50
15543;DHT22;7873;52.230;12.856;2023-02-19T04:54:42;22.30;44.50
15543;DHT22;7873;52.230;12.856;2023-02-19T04:57:08;22.30;44.50
15543;DHT22;7873;52.230;12.856;2023-02-19T04:59:35;22.30;44.60
15543;DHT22;7873;52.230;12.856;2023-02-19T05:02:02;22.30;44.60
15543;DHT22;7873;52.230;12.856;2023-02-19T05:04:28;22.30;44.60
15543;DHT22;7873;52.230;12.856;2023-02-19T05:06:55;22.30;44.60
15543;DHT22;7873;52.230;12.856;2023-02-19T05:09:23;22.30;44.60
15543;DHT22;7873;52.230;12.856;2023-02-19T05:11:50;22.20;44.50
15543;DHT22;7873;52.230;12.856;2023-02-19T05:14:16;22.20;44.50
15543;DHT22;7873;52.230;12.856;2023-02-19T05:16:43;22.20;44.70
15543;DHT22;7873;52.230;12.856;2023-02-19T05:19:10;22.20;44.70
15543;DHT22;7873;52.230;12.856;2023-02-19T05:21:36;22.10;44.80
15543;DHT22;7873;52.230;12.856;2023-02-19T05:24:04;22.20;44.60
15543;DHT22;7873;52.230;12.856;2023-02-19T05:26:32;22.20;44.60
15543;DHT22;7873;52.230;12.856;2023-02-19T05:28:59;22.10;44.60
15543;DHT22;7873;52.230;12.856;2023-02-19T05:31:25;22.20;44.50
15543;DHT22;7873;52.230;12.856;2023-02-19T05:33:54;22.20;44.30
15543;DHT22;7873;52.230;12.856;2023-02-19T05:36:21;22.30;44.10
15543;DHT22;7873;52.230;12.856;2023-02-19T05:38:50;22.40;43.80
15543;DHT22;7873;52.230;12.856;2023-02-19T05:41:19;22.40;43.30
15543;DHT22;7873;52.230;12.856;2023-02-19T05:43:48;22.40;43.00
15543;DHT22;7873;52.230;12.856;2023-02-19T05:46:16;22.50;43.30
15543;DHT22;7873;52.230;12.856;2023-02-19T05:48:44;22.60;43.20
15543;DHT22;7873;52.230;12.856;2023-02-19T05:51:11;22.60;43.10
15543;DHT22;7873;52.230;12.856;2023-02-19T05:53:40;22.70;43.00
15543;DHT22;7873;52.230;12.856;2023-02-19T05:56:16;22.70;42.90
15543;DHT22;7873;52.230;12.856;2023-02-19T05:59:14;22.70;43.00
15543;DHT22;7873;52.230;12.856;2023-02-19T06:01:41;22.70;43.00
15543;DHT22;7873;52.230;12.856;2023-02-19T06:04:08;22.70;43.00
15543;DHT22;7873;52.230;12.856;2023-02-19T06:06:35;22.70;43.00
15543;DHT22;7873;52.230;12.856;2023-02-19T06:09:02;22.70;43.00
15543;DHT22;7873;52.230;12.856;2023-02-19T06:11:29;22.70;43.00
15543;DHT22;7873;52.230;12.856;2023-02-19T06:13:56;22.70;43.00
15543;DHT22;7873;52.230;12.856;2023-02-19T06:16:24;22.70;43.00
15543;DHT22;7873;52.230;12.856;2023-02-19T06:18:51;22.70;43.10
15543;DHT22;7873;52.230;12.856;2023-02-19T06:21:18;22.60;43.10
15543;DHT22;7873;52.230;12.856;2023-02-19T06:23:45;22.60;43.10
15543;DHT22;7873;52.230;12.856;2023-02-19T06:26:13;22.60;43.10
15543;DHT22;7873;52.230;12.856;2023-02-19T06:28:41;22.60;43.10
15543;DHT22;7873;52.230;12.856;2023-02-19T06:31:09;22.60;40.90
15543;DHT22;7873;52.230;12.856;2023-02-19T06:33:38;22.30;35.60
15543;DHT22;7873;52.230;12.856;2023-02-19T06:36:06;22.00;35.90
15543;DHT22;7873;52.230;12.856;2023-02-19T06:38:33;21.80;37.80
15543;DHT22;7873;52.230;12.856;2023-02-19T06:41:00;21.80;37.30
15543;DHT22;7873;52.230;12.856;2023-02-19T06:43:29;21.90;39.20
15543;DHT22;7873;52.230;12.856;2023-02-19T06:45:56;22.00;40.80
15543;DHT22;7873;52.230;12.856;2023-02-19T06:48:24;22.10;41.40
15543;DHT22;7873;52.230;12.856;2023-02-19T06:50:52;22.10;41.60
15543;DHT22;7873;52.230;12.856;2023-02-19T06:53:18;22.10;41.60
15543;DHT22;7873;52.230;12.856;2023-02-19T06:55:53;22.20;41.80
15543;DHT22;7873;52.230;12.856;2023-02-19T06:58:20;22.20;41.80
15543;DHT22;7873;52.230;12.856;2023-02-19T07:00:47;22.20;41.90
15543;DHT22;7873;52.230;12.856;2023-02-19T07:03:15;22.20;42.00
15543;DHT22;7873;52.230;12.856;2023-02-19T07:05:42;22.10;42.10
15543;DHT22;7873;52.230;12.856;2023-02-19T07:08:10;22.20;42.20
15543;DHT22;7873;52.230;12.856;2023-02-19T07:10:37;22.20;42.20
15543;DHT22;7873;52.230;12.856;2023-02-19T07:13:03;22.10;42.10
15543;DHT22;7873;52.230;12.856;2023-02-19T07:15:30;22.20;42.20
15543;DHT22;7873;52.230;12.856;2023-02-19T07:17:57;22.20;42.30
15543;DHT22;7873;52.230;12.856;2023-02-19T07:20:26;22.20;42.30
15543;DHT22;7873;52.230;12.856;2023-02-19T07:22:52;22.20;42.40
15543;DHT22;7873;52.230;12.856;2023-02-19T07:25:20;22.20;42.40
15543;DHT22;7873;52.230;12.856;2023-02-19T07:27:47;22.20;42.50
15543;DHT22;7873;52.230;12.856;2023-02-19T07:30:14;22.10;42.40
15543;DHT22;7873;52.230;12.856;2023-02-19T07:32:41;22.10;42.30
15543;DHT22;7873;52.230;12.856;2023-02-19T07:35:09;22.20;42.00
15543;DHT22;7873;52.230;12.856;2023-02-19T07:37:36;22.20;41.80
15543;DHT22;7873;52.230;12.856;2023-02-19T07:40:05;22.20;41.50
15543;DHT22;7873;52.230;12.856;2023-02-19T07:42:34;22.30;41.30
15543;DHT22;7873;52.230;12.856;2023-02-19T07:45:01;22.30;41.20
15543;DHT22;7873;52.230;12.856;2023-02-19T07:47:31;22.30;41.30
15543;DHT22;7873;52.230;12.856;2023-02-19T07:50:00;22.30;41.40
15543;DHT22;7873;52.230;12.856;2023-02-19T07:52:29;22.30;41.40
15543;DHT22;7873;52.230;12.856;2023-02-19T07:55:00;22.30;41.50
15543;DHT22;7873;52.230;12.856;2023-02-19T07:57:30;22.30;41.40
15543;DHT22;7873;52.230;12.856;2023-02-19T08:00:00;22.30;41.40
15543;DHT22;7873;52.230;12.856;2023-02-19T08:02:29;22.30;41.80
15543;DHT22;7873;52.230;12.856;2023-02-19T08:05:15;22.30;41.60
15543;DHT22;7873;52.230;12.856;2023-02-19T08:07:46;22.30;41.60
15543;DHT22;7873;52.230;12.856;2023-02-19T08:10:16;22.20;42.10
15543;DHT22;7873;52.230;12.856;2023-02-19T08:13:02;22.30;42.80
15543;DHT22;7873;52.230;12.856;2023-02-19T08:15:50;22.20;42.10
15543;DHT22;7873;52.230;12.856;2023-02-19T08:18:22;22.20;42.30
15543;DHT22;7873;52.230;12.856;2023-02-19T08:20:53;22.20;42.50
15543;DHT22;7873;52.230;12.856;2023-02-19T08:23:23;22.20;42.30
15543;DHT22;7873;52.230;12.856;2023-02-19T08:25:55;22.20;40.10
15543;DHT22;7873;52.230;12.856;2023-02-19T08:28:23;22.10;42.00
15543;DHT22;7873;52.230;12.856;2023-02-19T08:30:52;22.10;41.00
15543;DHT22;7873;52.230;12.856;2023-02-19T08:33:19;22.00;39.30
15543;DHT22;7873;52.230;12.856;2023-02-19T08:35:46;21.80;39.20
15543;DHT22;7873;52.230;12.856;2023-02-19T08:38:13;21.80;39.60
15543;DHT22;7873;52.230;12.856;2023-02-19T08:40:41;21.70;39.90
15543;DHT22;7873;52.230;12.856;2023-02-19T08:43:08;21.70;40.10
15543;DHT22;7873;52.230;12.856;2023-02-19T08:45:37;21.80;40.60
15543;DHT22;7873;52.230;12.856;2023-02-19T08:48:06;21.80;40.90
15543;DHT22;7873;52.230;12.856;2023-02-19T08:50:33;21.90;41.20
15543;DHT22;7873;52.230;12.856;2023-02-19T08:53:00;21.90;40.60
15543;DHT22;7873;52.230;12.856;2023-02-19T08:55:28;21.90;39.80
15543;DHT22;7873;52.230;12.856;2023-02-19T08:57:55;21.80;39.10
15543;DHT22;7873;52.230;12.856;2023-02-19T09:00:22;21.90;38.80
15543;DHT22;7873;52.230;12.856;2023-02-19T09:02:48;22.00;39.00
15543;DHT22;7873;52.230;12.856;2023-02-19T09:05:17;22.10;39.60
15543;DHT22;7873;52.230;12.856;2023-02-19T09:07:44;22.10;39.70
15543;DHT22;7873;52.230;12.856;2023-02-19T09:10:11;22.10;39.90
15543;DHT22;7873;52.230;12.856;2023-02-19T09:12:39;22.10;39.90
15543;DHT22;7873;52.230;12.856;2023-02-19T09:15:06;22.10;40.00
15543;DHT22;7873;52.230;12.856;2023-02-19T09:17:33;22.10;40.00
15543;DHT22;7873;52.230;12.856;2023-02-19T09:20:00;22.20;40.10
15543;DHT22;7873;52.230;12.856;2023-02-19T09:22:28;22.10;40.20
15543;DHT22;7873;52.230;12.856;2023-02-19T09:24:54;22.10;40.20
15543;DHT22;7873;52.230;12.856;2023-02-19T09:27:21;22.10;40.20
15543;DHT22;7873;52.230;12.856;2023-02-19T09:29:48;22.10;40.30
15543;DHT22;7873;52.230;12.856;2023-02-19T09:32:14;22.10;40.30
15543;DHT22;7873;52.230;12.856;2023-02-19T09:34:41;22.10;40.30
15543;DHT22;7873;52.230;12.856;2023-02-19T09:37:07;22.10;40.40
15543;DHT22;7873;52.230;12.856;2023-02-19T09:39:36;22.10;40.40
15543;DHT22;7873;52.230;12.856;2023-02-19T09:42:03;22.10;40.40
15543;DHT22;7873;52.230;12.856;2023-02-19T09:44:38;22.10;40.50
15543;DHT22;7873;52.230;12.856;2023-02-19T09:47:10;22.00;40.60
15543;DHT22;7873;52.230;12.856;2023-02-19T09:49:42;22.00;40.60
15543;DHT22;7873;52.230;12.856;2023-02-19T09:52:15;22.00;40.60
15543;DHT22;7873;52.230;12.856;2023-02-19T09:54:46;22.00;40.70
15543;DHT22;7873;52.230;12.856;2023-02-19T09:57:13;22.00;40.60
15543;DHT22;7873;52.230;12.856;2023-02-19T09:59:43;22.00;40.80
15543;DHT22;7873;52.230;12.856;2023-02-19T10:02:14;22.00;40.70
15543;DHT22;7873;52.230;12.856;2023-02-19T10:04:42;22.00;40.70
15543;DHT22;7873;52.230;12.856;2023-02-19T10:07:10;22.00;40.70
15543;DHT22;7873;52.230;12.856;2023-02-19T10:09:38;22.00;40.70
15543;DHT22;7873;52.230;12.856;2023-02-19T10:12:11;22.00;40.70
15543;DHT22;7873;52.230;12.856;2023-02-19T10:14:41;22.00;40.70
15543;DHT22;7873;52.230;12.856;2023-02-19T10:17:12;22.00;40.70
15543;DHT22;7873;52.230;12.856;2023-02-19T10:19:49;22.00;40.60
15543;DHT22;7873;52.230;12.856;2023-02-19T10:22:16;22.00;40.60
15543;DHT22;7873;52.230;12.856;2023-02-19T10:24:43;22.00;40.60
15543;DHT22;7873;52.230;12.856;2023-02-19T10:27:14;22.10;40.60
15543;DHT22;7873;52.230;12.856;2023-02-19T10:29:41;22.00;40.70
15543;DHT22;7873;52.230;12.856;2023-02-19T10:32:13;22.00;40.70
15543;DHT22;7873;52.230;12.856;2023-02-19T10:34:42;22.00;40.70
15543;DHT22;7873;52.230;12.856;2023-02-19T10:37:11;22.00;40.70
15543;DHT22;7873;52.230;12.856;2023-02-19T10:39:41;22.00;40.70
15543;DHT22;7873;52.230;12.856;2023-02-19T10:42:15;22.00;40.80
15543;DHT22;7873;52.230;12.856;2023-02-19T10:44:44;22.00;40.70
15543;DHT22;7873;52.230;12.856;2023-02-19T10:47:16;22.00;40.70
15543;DHT22;7873;52.230;12.856;2023-02-19T10:49:45;22.00;40.70
15543;DHT22;7873;52.230;12.856;2023-02-19T10:52:15;22.00;40.70
15543;DHT22;7873;52.230;12.856;2023-02-19T10:54:45;21.90;40.70
15543;DHT22;7873;52.230;12.856;2023-02-19T10:57:30;22.00;40.70
15543;DHT22;7873;52.230;12.856;2023-02-19T10:59:58;21.90;40.40
15543;DHT22;7873;52.230;12.856;2023-02-19T11:02:26;21.80;39.10
15543;DHT22;7873;52.230;12.856;2023-02-19T11:05:01;21.70;40.30
15543;DHT22;7873;52.230;12.856;2023-02-19T11:07:30;21.70;40.70
15543;DHT22;7873;52.230;12.856;2023-02-19T11:09:56;21.70;41.20
15543;DHT22;7873;52.230;12.856;2023-02-19T11:12:25;21.70;41.30
15543;DHT22;7873;52.230;12.856;2023-02-19T11:14:56;21.60;41.00
15543;DHT22;7873;52.230;12.856;2023-02-19T11:17:24;21.60;40.80
15543;DHT22;7873;52.230;12.856;2023-02-19T11:19:53;21.60;40.50
15543;DHT22;7873;52.230;12.856;2023-02-19T11:22:28;21.60;38.30
15543;DHT22;7873;52.230;12.856;2023-02-19T11:24:59;21.60;37.60
15543;DHT22;7873;52.230;12.856;2023-02-19T11:27:30;21.60;38.10
15543;DHT22;7873;52.230;12.856;2023-02-19T11:30:02;21.60;38.40
15543;DHT22;7873;52.230;12.856;2023-02-19T11:32:56;21.70;38.20
15543;DHT22;7873;52.230;12.856;2023-02-19T11:35:45;21.70;38.70
15543;DHT22;7873;52.230;12.856;2023-02-19T11:38:13;21.70;38.60
15543;DHT22;7873;52.230;12.856;2023-02-19T11:40:42;21.70;39.00
15543;DHT22;7873;52.230;12.856;2023-02-19T11:43:20;21.70;39.10
15543;DHT22;7873;52.230;12.856;2023-02-19T11:46:03;21.70;39.00
15543;DHT22;7873;52.230;12.856;2023-02-19T11:48:45;21.80;38.10
15543;DHT22;7873;52.230;12.856;2023-02-19T11:54:09;21.70;37.40
15543;DHT22;7873;52.230;12.856;2023-02-19T11:56:46;21.60;37.70
15543;DHT22;7873;52.230;12.856;2023-02-19T11:59:22;21.50;38.20
15543;DHT22;7873;52.230;12.856;2023-02-19T12:02:04;21.70;40.50
15543;DHT22;7873;52.230;12.856;2023-02-19T12:08:08;22.20;40.90
15543;DHT22;7873;52.230;12.856;2023-02-19T12:11:03;22.30;40.70
15543;DHT22;7873;52.230;12.856;2023-02-19T12:13:50;22.30;40.40
15543;DHT22;7873;52.230;12.856;2023-02-19T12:16:29;22.40;41.00
15543;DHT22;7873;52.230;12.856;2023-02-19T12:22:02;22.40;40.60
15543;DHT22;7873;52.230;12.856;2023-02-19T12:27:48;22.40;40.70
15543;DHT22;7873;52.230;12.856;2023-02-19T12:30:33;22.40;41.00
15543;DHT22;7873;52.230;12.856;2023-02-19T12:33:27;22.30;40.90
15543;DHT22;7873;52.230;12.856;2023-02-19T12:36:09;22.20;40.80
15543;DHT22;7873;52.230;12.856;2023-02-19T12:38:42;22.00;40.20
15543;DHT22;7873;52.230;12.856;2023-02-19T12:41:16;21.90;39.80
15543;DHT22;7873;52.230;12.856;2023-02-19T12:43:51;21.90;40.10
15543;DHT22;7873;52.230;12.856;2023-02-19T12:46:22;21.80;40.10
15543;DHT22;7873;52.230;12.856;2023-02-19T12:48:54;21.80;40.00
15543;DHT22;7873;52.230;12.856;2023-02-19T12:51:26;21.80;40.20
15543;DHT22;7873;52.230;12.856;2023-02-19T12:53:59;21.80;40.40
15543;DHT22;7873;52.230;12.856;2023-02-19T12:56:32;21.80;40.70
15543;DHT22;7873;52.230;12.856;2023-02-19T12:59:02;21.80;40.90
15543;DHT22;7873;52.230;12.856;2023-02-19T13:01:34;21.90;40.80
15543;DHT22;7873;52.230;12.856;2023-02-19T13:04:12;21.90;40.50
15543;DHT22;7873;52.230;12.856;2023-02-19T13:06:45;22.00;40.60
15543;DHT22;7873;52.230;12.856;2023-02-19T13:09:19;21.90;40.60
15543;DHT22;7873;52.230;12.856;2023-02-19T13:11:52;22.00;40.70
15543;DHT22;7873;52.230;12.856;2023-02-19T13:14:23;22.00;40.60
15543;DHT22;7873;52.230;12.856;2023-02-19T13:16:55;22.10;40.60
15543;DHT22;7873;52.230;12.856;2023-02-19T13:19:26;22.00;40.50
15543;DHT22;7873;52.230;12.856;2023-02-19T13:21:57;22.00;41.30
15543;DHT22;7873;52.230;12.856;2023-02-19T13:24:48;22.00;40.40
15543;DHT22;7873;52.230;12.856;2023-02-19T13:27:22;21.90;40.30
15543;DHT22;7873;52.230;12.856;2023-02-19T13:30:09;21.90;40.50
15543;DHT22;7873;52.230;12.856;2023-02-19T13:32:51;21.90;40.60
15543;DHT22;7873;52.230;12.856;2023-02-19T13:35:25;22.00;40.30
15543;DHT22;7873;52.230;12.856;2023-02-19T13:38:01;22.00;40.20
15543;DHT22;7873;52.230;12.856;2023-02-19T13:40:32;22.10;40.20
15543;DHT22;7873;52.230;12.856;2023-02-19T13:43:01;22.10;41.00
15543;DHT22;7873;52.230;12.856;2023-02-19T13:45:31;22.00;40.20
15543;DHT22;7873;52.230;12.856;2023-02-19T13:48:00;22.00;40.30
15543;DHT22;7873;52.230;12.856;2023-02-19T13:50:39;22.10;40.20
15543;DHT22;7873;52.230;12.856;2023-02-19T13:59:20;22.10;40.20
15543;DHT22;7873;52.230;12.856;2023-02-19T14:04:44;22.20;40.20
15543;DHT22;7873;52.230;12.856;2023-02-19T14:07:20;22.20;40.20
15543;DHT22;7873;52.230;12.856;2023-02-19T14:09:58;22.20;40.20
15543;DHT22;7873;52.230;12.856;2023-02-19T14:12:30;22.10;40.30
15543;DHT22;7873;52.230;12.856;2023-02-19T14:17:59;22.10;40.40
15543;DHT22;7873;52.230;12.856;2023-02-19T14:20:40;22.10;40.40
15543;DHT22;7873;52.230;12.856;2023-02-19T14:23:15;22.00;40.40
15543;DHT22;7873;52.230;12.856;2023-02-19T14:25:49;22.00;40.50
15543;DHT22;7873;52.230;12.856;2023-02-19T14:28:30;22.00;40.50
15543;DHT22;7873;52.230;12.856;2023-02-19T14:31:02;22.00;40.60
15543;DHT22;7873;52.230;12.856;2023-02-19T14:33:35;22.00;40.70
15543;DHT22;7873;52.230;12.856;2023-02-19T14:36:05;21.90;40.70
15543;DHT22;7873;52.230;12.856;2023-02-19T14:38:40;21.90;40.20
15543;DHT22;7873;52.230;12.856;2023-02-19T14:41:12;21.90;40.20
15543;DHT22;7873;52.230;12.856;2023-02-19T14:43:42;21.80;40.50
15543;DHT22;7873;52.230;12.856;2023-02-19T14:46:13;21.90;40.10
15543;DHT22;7873;52.230;12.856;2023-02-19T14:48:44;21.90;40.10
15543;DHT22;7873;52.230;12.856;2023-02-19T14:51:14;22.00;40.20
15543;DHT22;7873;52.230;12.856;2023-02-19T14:53:50;22.00;40.10
15543;DHT22;7873;52.230;12.856;2023-02-19T14:56:18;22.00;39.90
15543;DHT22;7873;52.230;12.856;2023-02-19T15:01:51;22.00;41.00
15543;DHT22;7873;52.230;12.856;2023-02-19T15:04:20;22.10;40.70
15543;DHT22;7873;52.230;12.856;2023-02-19T15:06:47;22.30;40.40
15543;DHT22;7873;52.230;12.856;2023-02-19T15:09:18;22.40;40.20
15543;DHT22;7873;52.230;12.856;2023-02-19T15:11:46;22.30;40.20
15543;DHT22;7873;52.230;12.856;2023-02-19T15:14:18;22.30;40.40
15543;DHT22;7873;52.230;12.856;2023-02-19T15:16:47;22.10;40.30
15543;DHT22;7873;52.230;12.856;2023-02-19T15:19:18;22.20;40.50
15543;DHT22;7873;52.230;12.856;2023-02-19T15:21:45;22.30;40.10
15543;DHT22;7873;52.230;12.856;2023-02-19T15:24:14;22.40;39.60
15543;DHT22;7873;52.230;12.856;2023-02-19T15:26:45;22.60;39.60
15543;DHT22;7873;52.230;12.856;2023-02-19T15:29:16;23.00;39.00
15543;DHT22;7873;52.230;12.856;2023-02-19T15:31:45;23.40;38.50
15543;DHT22;7873;52.230;12.856;2023-02-19T15:34:15;23.70;37.90
15543;DHT22;7873;52.230;12.856;2023-02-19T15:36:44;23.90;37.40
15543;DHT22;7873;52.230;12.856;2023-02-19T15:39:15;24.10;36.90
15543;DHT22;7873;52.230;12.856;2023-02-19T15:41:48;24.30;36.10
15543;DHT22;7873;52.230;12.856;2023-02-19T15:44:23;24.50;35.90
15543;DHT22;7873;52.230;12.856;2023-02-19T15:46:56;24.90;35.50
15543;DHT22;7873;52.230;12.856;2023-02-19T15:49:26;25.10;35.80
15543;DHT22;7873;52.230;12.856;2023-02-19T15:52:00;25.20;35.50
15543;DHT22;7873;52.230;12.856;2023-02-19T15:54:34;25.50;35.60
15543;DHT22;7873;52.230;12.856;2023-02-19T15:57:15;25.60;35.30
15543;DHT22;7873;52.230;12.856;2023-02-19T15:59:47;25.80;35.00
15543;DHT22;7873;52.230;12.856;2023-02-19T16:02:17;25.70;35.20
15543;DHT22;7873;52.230;12.856;2023-02-19T16:04:44;25.40;32.50
15543;DHT22;7873;52.230;12.856;2023-02-19T16:07:21;25.20;32.20
15543;DHT22;7873;52.230;12.856;2023-02-19T16:10:02;25.30;32.20
15543;DHT22;7873;52.230;12.856;2023-02-19T16:12:30;25.50;32.50
15543;DHT22;7873;52.230;12.856;2023-02-19T16:14:58;25.60;32.00
15543;DHT22;7873;52.230;12.856;2023-02-19T16:17:25;25.70;30.90
15543;DHT22;7873;52.230;12.856;2023-02-19T16:19:53;25.70;30.00